createdAt,value
2017-07-10T00:02:15.089Z,92.00
2017-07-10T00:04:43.395Z,92.00
2017-07-10T00:07:10.871Z,92.00
2017-07-10T00:09:38.384Z,92.30
2017-07-10T00:12:06.638Z,92.50
2017-07-10T00:14:34.706Z,92.50
2017-07-10T00:17:02.337Z,92.70
2017-07-10T00:19:29.853Z,92.70
2017-07-10T00:21:58.112Z,93.00
2017-07-10T00:24:25.629Z,92.90
2017-07-10T00:26:53.124Z,93.10
2017-07-10T00:29:20.623Z,93.10
2017-07-10T00:31:48.175Z,93.00
2017-07-10T00:34:16.433Z,93.30
2017-07-10T00:36:44.695Z,93.30
2017-07-10T00:39:12.194Z,93.20
2017-07-10T00:41:39.754Z,93.10
2017-07-10T00:44:07.897Z,93.00
2017-07-10T00:46:36.177Z,93.50
2017-07-10T00:49:04.469Z,93.70
2017-07-10T00:51:32.760Z,94.30
2017-07-10T00:54:00.274Z,94.30
2017-07-10T00:56:27.765Z,94.30
2017-07-10T00:58:55.276Z,94.70
2017-07-10T01:01:22.795Z,94.20
2017-07-10T01:03:50.306Z,94.60
2017-07-10T01:06:17.811Z,94.70
2017-07-10T01:08:45.354Z,95.30
2017-07-10T01:11:13.638Z,95.30
2017-07-10T01:13:41.895Z,95.20
2017-07-10T01:16:09.486Z,95.20
2017-07-10T01:18:37.891Z,95.00
2017-07-10T01:21:05.383Z,95.50
2017-07-10T01:23:32.899Z,95.20
2017-07-10T01:26:00.439Z,95.30
2017-07-10T01:28:27.994Z,95.40
2017-07-10T01:30:55.680Z,95.40
2017-07-10T01:33:23.171Z,95.40
2017-07-10T01:35:50.679Z,95.20
2017-07-10T01:38:18.283Z,95.00
2017-07-10T01:40:45.786Z,95.10
2017-07-10T01:43:14.061Z,95.10
2017-07-10T01:45:42.454Z,95.10
2017-07-10T01:48:09.949Z,95.00
2017-07-10T01:50:37.474Z,95.20
2017-07-10T01:53:04.994Z,95.00
2017-07-10T01:55:32.475Z,94.90
2017-07-10T01:58:00.715Z,94.60
2017-07-10T02:00:28.354Z,94.60
2017-07-10T02:02:55.852Z,94.40
2017-07-10T02:05:23.457Z,94.10
2017-07-10T02:07:50.958Z,94.00
2017-07-10T02:10:18.474Z,94.00
2017-07-10T02:12:45.954Z,94.00
2017-07-10T02:15:13.477Z,94.00
2017-07-10T02:17:41.749Z,94.00
2017-07-10T02:20:10.007Z,94.10
2017-07-10T02:22:37.520Z,94.10
2017-07-10T02:25:04.990Z,94.10
2017-07-10T02:27:32.541Z,94.20
2017-07-10T02:30:00.195Z,94.60
2017-07-10T02:32:27.697Z,94.40
2017-07-10T02:34:55.296Z,94.60
2017-07-10T02:37:22.852Z,94.60
2017-07-10T02:39:51.116Z,94.80
2017-07-10T02:42:19.427Z,95.10
2017-07-10T02:44:46.966Z,95.10
2017-07-10T02:47:14.442Z,95.10
2017-07-10T02:49:41.958Z,95.00
2017-07-10T02:52:09.503Z,94.80
2017-07-10T02:54:37.000Z,94.80
2017-07-10T02:57:04.504Z,94.50
2017-07-10T02:59:32.117Z,94.30
2017-07-10T03:01:59.675Z,94.40
2017-07-10T03:04:27.973Z,94.30
2017-07-10T03:06:55.500Z,94.30
2017-07-10T03:09:23.775Z,94.40
2017-07-10T03:11:51.300Z,94.40
2017-07-10T03:14:18.824Z,94.70
2017-07-10T03:16:46.362Z,95.20
2017-07-10T03:19:14.703Z,94.50
2017-07-10T03:21:42.241Z,94.40
2017-07-10T03:24:10.490Z,94.60
2017-07-10T03:26:38.045Z,94.50
2017-07-10T03:29:05.575Z,95.00
2017-07-10T03:31:33.176Z,95.00
2017-07-10T03:34:00.678Z,94.90
2017-07-10T03:36:28.308Z,95.10
2017-07-10T03:38:55.817Z,95.10
2017-07-10T03:41:23.319Z,95.50
2017-07-10T03:43:50.878Z,95.60
2017-07-10T03:46:18.422Z,95.00
2017-07-10T03:48:45.923Z,94.70
2017-07-10T03:51:13.453Z,94.50
2017-07-10T03:53:41.800Z,95.00
2017-07-10T03:56:09.304Z,95.30
2017-07-10T03:58:36.865Z,95.60
2017-07-10T04:01:04.358Z,95.10
2017-07-10T04:03:31.852Z,94.90
2017-07-10T04:06:00.226Z,94.40
2017-07-10T04:08:28.485Z,94.10
2017-07-10T04:10:55.985Z,94.10
2017-07-10T04:13:23.520Z,94.10
2017-07-10T04:15:51.796Z,94.30
2017-07-10T04:18:20.063Z,94.10
2017-07-10T04:20:48.342Z,94.00
2017-07-10T04:23:16.597Z,94.00
2017-07-10T04:25:44.091Z,93.90
2017-07-10T04:28:12.360Z,93.00
2017-07-10T04:30:40.611Z,92.80
2017-07-10T04:33:08.097Z,92.70
2017-07-10T04:35:36.358Z,92.10
2017-07-10T04:38:03.843Z,92.10
2017-07-10T04:40:31.393Z,91.90
2017-07-10T04:42:59.071Z,91.90
2017-07-10T04:45:26.572Z,91.70
2017-07-10T04:47:54.111Z,91.30
2017-07-10T04:50:21.624Z,91.30
2017-07-10T04:52:49.866Z,90.80
2017-07-10T04:55:17.374Z,91.00
2017-07-10T04:57:45.850Z,90.90
2017-07-10T05:00:14.130Z,90.60
2017-07-10T05:02:42.395Z,90.40
2017-07-10T05:05:10.725Z,90.20
2017-07-10T05:07:38.244Z,90.20
2017-07-10T05:10:06.514Z,89.70
2017-07-10T05:12:34.814Z,89.60
2017-07-10T05:15:02.326Z,89.60
2017-07-10T05:17:29.800Z,89.90
2017-07-10T05:19:58.315Z,91.10
2017-07-10T05:22:25.804Z,90.70
2017-07-10T05:24:54.157Z,92.10
2017-07-10T05:27:21.690Z,91.70
2017-07-10T05:29:49.930Z,92.40
2017-07-10T05:32:17.423Z,92.40
2017-07-10T05:34:45.722Z,93.40
2017-07-10T05:37:13.279Z,93.40
2017-07-10T05:39:40.802Z,92.80
2017-07-10T05:42:08.310Z,93.00
2017-07-10T05:44:35.807Z,93.30
2017-07-10T05:47:03.336Z,93.20
2017-07-10T05:49:30.874Z,93.10
2017-07-10T05:51:58.448Z,93.40
2017-07-10T05:54:25.992Z,93.90
2017-07-10T05:56:53.574Z,93.60
2017-07-10T05:59:21.081Z,93.30
2017-07-10T06:01:48.671Z,93.10
2017-07-10T06:04:16.187Z,92.70
2017-07-10T06:06:44.377Z,92.30
2017-07-10T06:09:12.700Z,91.30
2017-07-10T06:11:40.231Z,91.50
2017-07-10T06:14:09.348Z,91.20
2017-07-10T06:16:37.199Z,91.20
2017-07-10T06:19:04.773Z,90.80
2017-07-10T06:21:32.283Z,90.60
2017-07-10T06:23:59.770Z,90.60
2017-07-10T06:26:27.277Z,90.90
2017-07-10T06:28:54.758Z,90.90
2017-07-10T06:31:22.249Z,91.20
2017-07-10T06:33:50.528Z,91.50
2017-07-10T06:36:18.026Z,91.50
2017-07-10T06:38:45.541Z,92.20
2017-07-10T06:41:14.047Z,92.80
2017-07-10T06:43:41.584Z,92.80
2017-07-10T06:46:09.881Z,93.60
2017-07-10T06:48:37.629Z,93.60
2017-07-10T06:51:05.109Z,94.00
2017-07-10T06:53:32.617Z,94.00
2017-07-10T06:56:00.130Z,94.60
2017-07-10T06:58:27.628Z,94.80
2017-07-10T07:00:55.234Z,94.90
2017-07-10T07:03:22.798Z,94.90
2017-07-10T07:05:50.464Z,95.10
2017-07-10T07:08:18.120Z,94.60
2017-07-10T07:10:45.647Z,94.40
2017-07-10T07:13:13.126Z,93.30
2017-07-10T07:15:41.388Z,92.80
2017-07-10T07:18:09.702Z,92.70
2017-07-10T07:20:37.260Z,93.00
2017-07-10T07:23:04.772Z,92.30
2017-07-10T07:25:32.290Z,91.30
2017-07-10T07:27:59.792Z,91.00
2017-07-10T07:30:27.288Z,90.70
2017-07-10T07:32:54.811Z,88.80
2017-07-10T07:35:22.319Z,85.20
2017-07-10T07:37:49.834Z,84.70
2017-07-10T07:40:17.395Z,84.20
2017-07-10T07:42:45.712Z,85.60
2017-07-10T07:45:13.203Z,85.40
2017-07-10T07:47:41.580Z,86.90
2017-07-10T07:50:09.224Z,90.50
2017-07-10T07:52:36.749Z,89.60
2017-07-10T07:55:04.477Z,89.20
2017-07-10T07:57:32.110Z,90.70
2017-07-10T07:59:59.652Z,90.60
2017-07-10T08:02:28.268Z,90.10
2017-07-10T08:04:55.808Z,88.20
2017-07-10T08:07:23.405Z,87.10
2017-07-10T08:09:51.002Z,85.60
2017-07-10T08:12:18.563Z,84.70
2017-07-10T08:14:46.145Z,82.80
2017-07-10T08:17:14.626Z,83.40
2017-07-10T08:19:42.180Z,82.60
2017-07-10T08:22:09.771Z,82.10
2017-07-10T08:24:37.437Z,80.70
2017-07-10T08:27:04.941Z,80.50
2017-07-10T08:29:33.295Z,79.10
2017-07-10T08:32:01.728Z,80.50
2017-07-10T08:34:29.513Z,80.10
2017-07-10T08:36:57.149Z,81.70
2017-07-10T08:39:24.693Z,80.20
2017-07-10T08:41:52.207Z,81.10
2017-07-10T08:44:19.700Z,79.00
2017-07-10T08:46:47.984Z,77.40
2017-07-10T08:49:16.231Z,80.10
2017-07-10T08:51:43.723Z,80.00
2017-07-10T08:54:11.224Z,77.00
2017-07-10T08:56:38.725Z,77.90
2017-07-10T08:59:06.990Z,77.10
2017-07-10T09:01:34.516Z,77.00
2017-07-10T09:04:02.009Z,75.60
2017-07-10T09:06:29.512Z,74.10
2017-07-10T09:08:57.258Z,74.50
2017-07-10T09:11:24.776Z,76.80
2017-07-10T09:13:52.402Z,76.80
2017-07-10T09:16:20.835Z,73.40
2017-07-10T09:18:48.395Z,73.60
2017-07-10T09:21:16.666Z,74.80
2017-07-10T09:23:44.193Z,74.60
2017-07-10T09:26:11.739Z,75.80
2017-07-10T09:28:39.220Z,75.60
2017-07-10T09:31:06.935Z,75.90
2017-07-10T09:33:34.435Z,76.10
2017-07-10T09:36:01.927Z,77.10
2017-07-10T09:38:29.436Z,78.00
2017-07-10T09:40:56.937Z,78.80
2017-07-10T09:43:24.429Z,76.10
2017-07-10T09:45:51.944Z,72.40
2017-07-10T09:48:19.446Z,71.90
2017-07-10T09:50:46.941Z,69.20
2017-07-10T09:53:14.459Z,69.40
2017-07-10T09:55:42.711Z,68.30
2017-07-10T09:58:10.193Z,68.20
2017-07-10T10:00:38.484Z,61.40
2017-07-10T10:03:05.978Z,61.40
2017-07-10T10:05:33.553Z,62.50
2017-07-10T10:08:01.085Z,64.00
2017-07-10T10:10:28.572Z,64.80
2017-07-10T10:12:56.072Z,66.90
2017-07-10T10:15:24.491Z,66.80
2017-07-10T10:17:51.988Z,68.20
2017-07-10T10:20:19.478Z,70.30
2017-07-10T10:22:46.995Z,69.90
2017-07-10T10:25:14.462Z,67.30
2017-07-10T10:27:41.947Z,68.50
2017-07-10T10:30:10.344Z,66.80
2017-07-10T10:32:37.831Z,65.10
2017-07-10T10:35:05.323Z,65.60
2017-07-10T10:37:33.615Z,61.50
2017-07-10T10:40:01.105Z,61.30
2017-07-10T10:42:28.602Z,59.80
2017-07-10T10:44:56.107Z,59.70
2017-07-10T10:47:23.654Z,59.00
2017-07-10T10:49:51.147Z,55.00
2017-07-10T10:52:18.667Z,53.80
2017-07-10T10:54:46.154Z,55.00
2017-07-10T10:57:13.630Z,55.90
2017-07-10T10:59:41.130Z,55.50
2017-07-10T11:02:09.424Z,55.90
2017-07-10T11:04:36.920Z,55.80
2017-07-10T11:07:04.440Z,55.10
2017-07-10T11:09:31.934Z,53.80
2017-07-10T11:11:59.428Z,51.30
2017-07-10T11:14:27.038Z,52.60
2017-07-10T11:16:54.885Z,52.30
2017-07-10T11:19:22.704Z,52.70
2017-07-10T11:21:50.224Z,52.00
2017-07-10T11:24:17.694Z,52.20
2017-07-10T11:26:45.243Z,52.60
2017-07-10T11:29:12.783Z,52.40
2017-07-10T11:31:40.301Z,52.70
2017-07-10T11:34:07.801Z,53.20
2017-07-10T11:36:35.405Z,53.60
2017-07-10T11:39:02.887Z,53.10
2017-07-10T11:41:30.509Z,53.30
2017-07-10T11:43:58.027Z,52.50
2017-07-10T11:46:26.431Z,52.60
2017-07-10T11:48:54.007Z,52.40
2017-07-10T11:51:21.632Z,51.50
2017-07-10T11:53:49.133Z,49.30
2017-07-10T11:56:16.650Z,49.20
2017-07-10T11:58:44.936Z,45.80
2017-07-10T12:01:13.191Z,44.40
2017-07-10T12:03:41.109Z,44.40
2017-07-10T12:06:08.647Z,44.40
2017-07-10T12:08:36.142Z,41.60
2017-07-10T12:11:03.708Z,39.80
2017-07-10T12:13:31.253Z,40.90
2017-07-10T12:15:58.760Z,42.20
2017-07-10T12:18:26.302Z,41.80
2017-07-10T12:20:54.196Z,39.80
2017-07-10T12:23:22.478Z,45.00
2017-07-10T12:25:50.736Z,46.00
2017-07-10T12:28:18.367Z,46.00
2017-07-10T12:30:45.847Z,47.30
2017-07-10T12:33:13.337Z,48.20
2017-07-10T12:35:41.661Z,45.20
2017-07-10T12:38:09.143Z,45.20
2017-07-10T12:40:36.630Z,46.40
2017-07-10T12:43:04.953Z,49.20
2017-07-10T12:45:32.462Z,49.10
2017-07-10T12:48:00.725Z,48.40
2017-07-10T12:50:29.012Z,46.80
2017-07-10T12:52:57.304Z,42.50
2017-07-10T12:55:24.792Z,42.50
2017-07-10T12:57:52.611Z,41.00
2017-07-10T13:00:20.894Z,35.00
2017-07-10T13:02:49.232Z,33.00
2017-07-10T13:05:16.747Z,32.90
2017-07-10T13:07:44.229Z,34.20
2017-07-10T13:10:11.721Z,31.80
2017-07-10T13:12:39.258Z,30.30
2017-07-10T13:15:06.752Z,33.10
2017-07-10T13:17:34.222Z,36.70
2017-07-10T13:20:02.618Z,41.80
2017-07-10T13:22:30.131Z,41.70
2017-07-10T13:24:57.666Z,43.80
2017-07-10T13:27:25.192Z,40.50
2017-07-10T13:29:52.697Z,37.80
2017-07-10T13:34:55.011Z,32.10
2017-07-10T13:37:22.503Z,31.90
2017-07-10T13:39:49.997Z,33.40
2017-07-10T13:42:17.542Z,31.80
2017-07-10T13:44:45.047Z,31.70
2017-07-10T13:47:12.542Z,33.00
2017-07-10T13:49:40.082Z,34.80
2017-07-10T13:52:08.362Z,39.40
2017-07-10T13:54:35.871Z,39.30
2017-07-10T13:57:03.457Z,38.60
2017-07-10T13:59:30.939Z,42.30
2017-07-10T14:01:59.213Z,37.90
2017-07-10T14:04:26.724Z,37.90
2017-07-10T14:06:54.214Z,36.30
2017-07-10T14:09:22.668Z,32.50
2017-07-10T14:11:50.232Z,36.30
2017-07-10T14:14:17.734Z,38.40
2017-07-10T14:16:45.233Z,40.40
2017-07-10T14:19:12.748Z,40.50
2017-07-10T14:21:40.262Z,41.40
2017-07-10T14:24:07.746Z,42.90
2017-07-10T14:26:35.693Z,44.30
2017-07-10T14:29:03.186Z,44.40
2017-07-10T14:31:31.447Z,46.50
2017-07-10T14:33:58.969Z,46.50
2017-07-10T14:36:26.467Z,47.90
2017-07-10T14:38:53.949Z,47.80
2017-07-10T14:41:21.532Z,49.20
2017-07-10T14:43:49.087Z,50.30
2017-07-10T14:46:16.594Z,50.30
2017-07-10T14:48:44.116Z,50.80
2017-07-10T14:51:11.678Z,51.40
2017-07-10T14:53:39.161Z,52.00
2017-07-10T14:56:06.792Z,54.10
2017-07-10T14:58:34.293Z,61.40
2017-07-10T15:01:01.793Z,67.60
2017-07-10T15:03:29.323Z,76.80
2017-07-10T15:05:57.334Z,99.90
2017-07-10T15:08:25.845Z,99.90
2017-07-10T15:10:53.853Z,99.90
2017-07-10T15:13:21.359Z,99.90
2017-07-10T15:15:49.387Z,99.90
2017-07-10T15:18:17.709Z,99.90
2017-07-10T15:20:45.254Z,99.90
2017-07-10T15:23:12.763Z,99.90
2017-07-10T15:25:40.409Z,99.90
2017-07-10T15:28:07.916Z,99.90
2017-07-10T15:30:36.182Z,99.90
2017-07-10T15:33:03.736Z,99.90
2017-07-10T15:35:31.225Z,99.90
2017-07-10T15:37:58.805Z,99.90
2017-07-10T15:40:26.355Z,99.90
2017-07-10T15:42:53.924Z,99.90
2017-07-10T15:45:21.480Z,99.90
2017-07-10T15:47:49.026Z,99.90
2017-07-10T15:50:16.531Z,99.90
2017-07-10T15:52:44.063Z,99.90
2017-07-10T15:55:11.602Z,99.90
2017-07-10T15:57:39.090Z,99.90
2017-07-10T16:00:06.565Z,99.90
2017-07-10T16:02:34.084Z,99.90
2017-07-10T16:05:01.591Z,99.90
2017-07-10T16:07:29.071Z,99.90
2017-07-10T16:09:57.366Z,99.90
2017-07-10T16:12:25.179Z,99.90
2017-07-10T16:14:52.675Z,99.90
2017-07-10T16:17:20.962Z,99.90
2017-07-10T16:19:48.462Z,99.90
2017-07-10T16:22:15.971Z,99.90
2017-07-10T16:24:43.671Z,99.90
2017-07-10T16:27:11.171Z,94.50
2017-07-10T16:29:38.684Z,92.40
2017-07-10T16:32:06.249Z,81.30
2017-07-10T16:34:33.769Z,83.00
2017-07-10T16:37:02.087Z,80.30
2017-07-10T16:39:29.605Z,79.90
2017-07-10T16:41:57.866Z,76.50
2017-07-10T16:44:25.371Z,76.50
2017-07-10T16:46:52.900Z,81.50
2017-07-10T16:49:21.179Z,86.70
2017-07-10T16:51:49.491Z,90.40
2017-07-10T16:54:17.039Z,90.50
2017-07-10T16:56:45.329Z,91.10
2017-07-10T16:59:12.889Z,92.00
2017-07-10T17:01:40.408Z,89.10
2017-07-10T17:04:08.722Z,89.80
2017-07-10T17:06:36.232Z,89.70
2017-07-10T17:09:03.735Z,90.70
2017-07-10T17:11:31.264Z,90.20
2017-07-10T17:13:59.530Z,86.30
2017-07-10T17:16:27.066Z,86.50
2017-07-10T17:18:54.593Z,86.70
2017-07-10T17:21:22.119Z,88.70
2017-07-10T17:23:50.387Z,91.40
2017-07-10T17:26:18.816Z,93.80
2017-07-10T17:28:46.306Z,93.80
2017-07-10T17:31:13.807Z,95.10
2017-07-10T17:33:42.196Z,96.80
2017-07-10T17:36:09.701Z,96.80
2017-07-10T17:38:38.646Z,97.30
2017-07-10T17:41:06.364Z,97.60
2017-07-10T17:43:33.889Z,97.70
2017-07-10T17:46:01.376Z,97.50
2017-07-10T17:48:28.893Z,96.90
2017-07-10T17:50:56.400Z,95.60
2017-07-10T17:53:23.936Z,93.40
2017-07-10T17:55:51.468Z,93.80
2017-07-10T17:58:18.997Z,94.20
2017-07-10T18:00:46.523Z,95.30
2017-07-10T18:03:14.024Z,95.40
2017-07-10T18:05:42.326Z,98.80
2017-07-10T18:08:09.796Z,98.80
2017-07-10T18:10:37.292Z,99.00
2017-07-10T18:13:04.837Z,99.40
2017-07-10T18:15:32.477Z,99.60
2017-07-10T18:17:59.958Z,99.40
2017-07-10T18:20:27.490Z,99.90
2017-07-10T18:22:54.995Z,99.90
2017-07-10T18:25:22.478Z,99.90
2017-07-10T18:27:50.767Z,99.90
2017-07-10T18:30:18.257Z,99.90
2017-07-10T18:32:45.756Z,99.90
2017-07-10T18:35:13.277Z,99.90
2017-07-10T18:37:40.787Z,99.10
2017-07-10T18:40:09.228Z,97.30
2017-07-10T18:42:36.954Z,97.30
2017-07-10T18:45:04.449Z,98.40
2017-07-10T18:47:31.964Z,98.90
2017-07-10T18:49:59.726Z,99.10
2017-07-10T18:52:27.219Z,99.40
2017-07-10T18:54:54.730Z,99.90
2017-07-10T18:57:23.016Z,99.90
2017-07-10T18:59:51.741Z,99.90
2017-07-10T19:02:19.222Z,99.90
2017-07-10T19:04:46.733Z,99.90
2017-07-10T19:07:14.214Z,99.90
2017-07-10T19:09:41.711Z,99.90
2017-07-10T19:12:09.337Z,99.90
2017-07-10T19:14:36.832Z,99.90
2017-07-10T19:17:04.306Z,99.90
2017-07-10T19:19:32.636Z,99.90
2017-07-10T19:22:00.157Z,99.90
2017-07-10T19:24:28.469Z,99.90
2017-07-10T19:26:55.998Z,99.90
2017-07-10T19:29:23.515Z,99.90
2017-07-10T19:31:51.052Z,99.90
2017-07-10T19:34:18.780Z,99.90
2017-07-10T19:36:46.364Z,99.90
2017-07-10T19:39:13.876Z,99.90
2017-07-10T19:41:41.392Z,99.90
2017-07-10T19:44:08.901Z,99.90
2017-07-10T19:46:37.175Z,99.90
2017-07-10T19:49:05.612Z,99.90
2017-07-10T19:51:33.127Z,99.90
2017-07-10T19:54:01.393Z,99.90
2017-07-10T19:56:29.000Z,99.90
2017-07-10T19:58:56.483Z,99.90
2017-07-10T20:01:24.005Z,99.90
2017-07-10T20:03:51.518Z,99.90
2017-07-10T20:06:19.015Z,99.90
2017-07-10T20:08:46.519Z,99.90
2017-07-10T20:11:14.043Z,99.90
2017-07-10T20:13:42.006Z,99.90
2017-07-10T20:16:09.523Z,99.90
2017-07-10T20:18:37.101Z,99.90
2017-07-10T20:21:04.602Z,99.90
2017-07-10T20:23:32.089Z,99.90
2017-07-10T20:25:59.616Z,99.90
2017-07-10T20:28:27.105Z,99.90
2017-07-10T20:30:55.467Z,99.90
2017-07-10T20:33:22.973Z,99.90
2017-07-10T20:35:51.232Z,99.90
2017-07-10T20:38:18.776Z,99.90
2017-07-10T20:40:46.305Z,99.90
2017-07-10T20:43:13.792Z,99.90
2017-07-10T20:45:41.276Z,99.90
2017-07-10T20:48:08.810Z,99.90
2017-07-10T20:50:36.319Z,99.90
2017-07-10T20:53:03.809Z,99.90
2017-07-10T20:55:31.313Z,99.90
2017-07-10T20:57:58.826Z,99.90
2017-07-10T21:00:26.350Z,99.90
2017-07-10T21:02:53.902Z,99.90
2017-07-10T21:05:22.162Z,99.90
2017-07-10T21:07:49.749Z,99.90
2017-07-10T21:10:17.237Z,99.90
2017-07-10T21:12:44.774Z,99.90
2017-07-10T21:15:12.295Z,99.90
2017-07-10T21:17:39.807Z,99.90
2017-07-10T21:20:07.364Z,99.90
2017-07-10T21:22:34.855Z,99.90
2017-07-10T21:25:02.381Z,99.90
2017-07-10T21:27:29.880Z,99.90
2017-07-10T21:29:57.376Z,99.90
2017-07-10T21:32:25.856Z,99.90
2017-07-10T21:34:54.809Z,99.90
2017-07-10T21:37:22.331Z,99.90
2017-07-10T21:39:49.869Z,99.90
2017-07-10T21:42:17.453Z,99.90
2017-07-10T21:44:44.985Z,99.90
2017-07-10T21:47:13.297Z,99.90
2017-07-10T21:49:40.778Z,99.90
2017-07-10T21:52:08.254Z,99.90
2017-07-10T21:54:35.827Z,99.90
2017-07-10T21:57:04.076Z,99.90
2017-07-10T21:59:31.579Z,99.90
2017-07-10T22:01:59.186Z,99.90
2017-07-10T22:04:26.689Z,99.90
2017-07-10T22:06:54.986Z,99.90
2017-07-10T22:09:22.497Z,99.90
2017-07-10T22:11:49.987Z,99.90
2017-07-10T22:14:18.228Z,99.90
2017-07-10T22:16:45.773Z,99.90
2017-07-10T22:19:13.261Z,99.90
2017-07-10T22:21:41.532Z,99.90
2017-07-10T22:24:09.123Z,99.90
2017-07-10T22:26:37.387Z,99.90
2017-07-10T22:29:05.637Z,99.90
2017-07-10T22:31:33.165Z,99.90
2017-07-10T22:34:00.665Z,99.90
2017-07-10T22:36:28.244Z,99.90
2017-07-10T22:38:56.542Z,99.90
2017-07-10T22:41:24.078Z,99.90
2017-07-10T22:43:52.458Z,99.90
2017-07-10T22:46:20.904Z,99.90
2017-07-10T22:48:48.669Z,99.90
2017-07-10T22:51:16.168Z,99.90
2017-07-10T22:53:44.456Z,99.90
2017-07-10T22:56:12.026Z,99.90
2017-07-10T22:58:39.535Z,99.90
2017-07-10T23:01:07.070Z,99.90
2017-07-10T23:03:34.546Z,99.90
2017-07-10T23:06:02.104Z,99.90
2017-07-10T23:08:29.624Z,99.90
2017-07-10T23:10:57.181Z,99.90
2017-07-10T23:13:24.663Z,99.90
2017-07-10T23:15:52.223Z,99.90
2017-07-10T23:18:19.750Z,99.90
2017-07-10T23:20:47.246Z,99.90
2017-07-10T23:23:14.784Z,99.90
2017-07-10T23:25:42.279Z,99.90
2017-07-10T23:28:10.437Z,99.90
2017-07-10T23:30:37.973Z,99.90
2017-07-10T23:33:05.450Z,99.90
2017-07-10T23:35:32.931Z,99.90
2017-07-10T23:38:00.451Z,99.90
2017-07-10T23:40:27.945Z,99.90
2017-07-10T23:42:55.445Z,99.90
2017-07-10T23:45:23.851Z,99.90
2017-07-10T23:47:51.370Z,99.90
2017-07-10T23:50:18.846Z,99.90
2017-07-10T23:52:47.151Z,99.90
2017-07-10T23:55:14.665Z,99.90
2017-07-10T23:57:42.964Z,99.90
